Terminal Aerodrome Forecast
Issued by NWS Mobile, AL

Home | Current Version | Previous Version | Text Only | Print | Product List | Glossary On
Versions: 1 2 3 4 5 6 7 8 9 10 11 12 13
000
FTUS44 KMOB 110522
TAFMOB
TAF
KMOB 110522Z 1106/1206 03005KT P6SM SCT250
     FM111600 10007KT P6SM SCT020
     FM111900 13009KT P6SM BKN025
     FM120300 15008KT 2SM BR OVC007=

USA.gov is the U.S. government's official web portal to all federal, state and local government web resources and services.